createdAt,value
2022-09-12T05:45:01.100Z,16.49
2022-09-12T05:47:28.603Z,16.48
2022-09-12T05:49:56.449Z,16.53
2022-09-12T05:52:23.987Z,16.47
2022-09-12T05:54:51.468Z,16.84
2022-09-12T05:57:18.811Z,17.28
2022-09-12T05:59:46.584Z,17.27
2022-09-12T06:02:14.228Z,17.35
2022-09-12T06:04:41.681Z,17.15
2022-09-12T06:07:11.484Z,17.13
2022-09-12T06:09:38.866Z,17.35
2022-09-12T06:12:07.778Z,16.90
2022-09-12T06:14:35.206Z,16.95
2022-09-12T06:17:02.737Z,17.19
2022-09-12T06:19:30.171Z,17.15
2022-09-12T06:21:57.668Z,16.83
2022-09-12T06:24:25.219Z,17.06
2022-09-12T06:26:55.712Z,17.47
2022-09-12T06:29:23.184Z,17.39
2022-09-12T06:31:50.491Z,17.65
2022-09-12T06:34:17.872Z,17.68
2022-09-12T06:36:46.038Z,17.38
2022-09-12T06:39:14.321Z,17.51
2022-09-12T06:41:43.957Z,17.46
2022-09-12T06:44:16.260Z,17.42
2022-09-12T06:46:44.454Z,17.59
2022-09-12T06:49:11.821Z,17.56
2022-09-12T06:51:41.950Z,17.51
2022-09-12T06:54:10.817Z,17.70
2022-09-12T06:56:38.131Z,17.59
2022-09-12T06:59:05.408Z,17.46
2022-09-12T07:01:33.345Z,17.51
2022-09-12T07:04:01.429Z,17.62
2022-09-12T07:06:32.133Z,17.61
2022-09-12T07:08:59.876Z,17.75
2022-09-12T07:11:28.147Z,18.15
2022-09-12T07:13:56.600Z,18.04
2022-09-12T07:16:27.195Z,17.83
2022-09-12T07:18:56.120Z,18.11
2022-09-12T07:21:23.609Z,18.09
2022-09-12T07:23:52.100Z,17.77
2022-09-12T07:26:19.696Z,18.02
2022-09-12T07:28:50.880Z,18.22
2022-09-12T07:31:18.389Z,18.01
2022-09-12T07:33:45.834Z,18.22
2022-09-12T07:36:14.507Z,18.12
2022-09-12T07:38:42.149Z,18.29
2022-09-12T07:41:12.900Z,18.30
2022-09-12T07:43:40.465Z,18.45
2022-09-12T07:46:09.528Z,18.38
2022-09-12T07:48:38.096Z,18.43
2022-09-12T07:51:06.137Z,18.38
2022-09-12T07:53:43.555Z,18.44
2022-09-12T07:56:11.170Z,18.22
2022-09-12T07:58:40.749Z,18.29
2022-09-12T08:01:28.322Z,18.25
2022-09-12T08:03:59.439Z,18.58
2022-09-12T08:06:27.603Z,18.50
2022-09-12T08:08:55.827Z,18.69
2022-09-12T08:11:23.510Z,18.95
2022-09-12T08:13:55.391Z,18.74
2022-09-12T08:16:24.715Z,18.52
2022-09-12T08:18:52.244Z,18.59
2022-09-12T08:21:20.559Z,18.73
2022-09-12T08:23:48.563Z,18.61
2022-09-12T08:26:16.203Z,18.64
2022-09-12T08:28:45.724Z,18.58
2022-09-12T08:31:13.980Z,18.75
2022-09-12T08:33:44.469Z,18.87
2022-09-12T08:36:15.688Z,19.04
2022-09-12T08:38:47.043Z,19.25
2022-09-12T08:41:18.023Z,19.25
2022-09-12T08:44:04.442Z,19.31
2022-09-12T08:46:31.883Z,19.37
2022-09-12T08:48:59.316Z,19.59
2022-09-12T08:51:27.077Z,19.56
2022-09-12T08:53:54.848Z,19.45
2022-09-12T08:56:22.269Z,19.58
2022-09-12T08:58:49.727Z,19.73
2022-09-12T09:01:21.603Z,20.11
2022-09-12T09:04:07.927Z,20.30
2022-09-12T09:06:41.687Z,20.23
2022-09-12T09:09:29.560Z,20.78
2022-09-12T09:11:56.951Z,21.38
2022-09-12T09:14:49.085Z,21.49
2022-09-12T09:17:20.330Z,20.83
2022-09-12T09:19:56.696Z,21.09
2022-09-12T09:22:27.152Z,21.12
2022-09-12T09:24:55.806Z,21.52
2022-09-12T09:27:39.774Z,21.83
2022-09-12T09:30:18.593Z,21.46
2022-09-12T09:32:48.149Z,21.43
2022-09-12T09:35:15.665Z,21.17
2022-09-12T09:37:44.464Z,21.03
2022-09-12T09:40:20.579Z,20.99
2022-09-12T09:42:47.966Z,20.96
2022-09-12T09:45:19.980Z,21.14
2022-09-12T09:47:55.108Z,21.37
2022-09-12T09:50:22.675Z,21.09
2022-09-12T09:52:50.199Z,21.25
2022-09-12T09:55:28.312Z,21.34
2022-09-12T09:57:55.774Z,21.52
2022-09-12T10:00:30.704Z,21.62
2022-09-12T10:03:03.067Z,21.48
2022-09-12T10:05:33.071Z,21.67
2022-09-12T10:08:00.528Z,22.07
2022-09-12T10:10:27.845Z,22.39
2022-09-12T10:13:24.509Z,22.85
2022-09-12T10:15:57.746Z,22.44
2022-09-12T10:18:54.507Z,22.45
2022-09-12T10:21:23.712Z,22.30
2022-09-12T10:23:51.985Z,22.24
2022-09-12T10:26:19.793Z,22.22
2022-09-12T10:28:49.680Z,22.06
2022-09-12T10:31:17.908Z,22.17
2022-09-12T10:33:47.382Z,22.15
2022-09-12T10:36:14.926Z,22.18
2022-09-12T10:38:48.280Z,21.96
2022-09-12T10:41:15.676Z,22.06
2022-09-12T10:43:43.015Z,22.08
2022-09-12T10:46:16.663Z,22.08
2022-09-12T10:48:44.497Z,22.09
2022-09-12T10:51:30.496Z,22.22
2022-09-12T10:53:58.520Z,22.44
2022-09-12T10:56:47.413Z,22.12
2022-09-12T10:59:34.403Z,21.85
2022-09-12T11:02:05.142Z,21.83
2022-09-12T11:04:32.501Z,21.74
2022-09-12T11:07:26.515Z,21.82
2022-09-12T11:10:06.466Z,21.88
2022-09-12T11:12:37.460Z,21.83
2022-09-12T11:15:11.124Z,21.89
2022-09-12T11:17:38.704Z,21.76
2022-09-12T11:20:21.352Z,21.91
2022-09-12T11:23:07.583Z,21.89
2022-09-12T11:25:55.488Z,22.12
2022-09-12T11:28:26.112Z,22.05
2022-09-12T11:31:12.285Z,21.87
2022-09-12T11:33:42.965Z,21.82
2022-09-12T11:36:28.952Z,21.65
2022-09-12T11:38:56.303Z,21.71
2022-09-12T11:41:28.888Z,21.63
2022-09-12T11:44:31.888Z,21.62
2022-09-12T11:46:59.496Z,21.81
2022-09-12T11:49:33.530Z,21.79
2022-09-12T11:52:14.895Z,21.87
2022-09-12T11:54:44.903Z,21.86
2022-09-12T11:57:12.550Z,21.67
2022-09-12T11:59:58.664Z,21.42
2022-09-12T12:02:29.951Z,21.76
2022-09-12T12:05:03.336Z,21.55
2022-09-12T12:07:36.010Z,21.53
2022-09-12T12:10:05.606Z,21.48
2022-09-12T12:12:33.485Z,21.48
2022-09-12T12:15:01.235Z,21.56
2022-09-12T12:17:29.796Z,21.64
2022-09-12T12:20:06.489Z,21.81
2022-09-12T12:22:36.156Z,21.91
2022-09-12T12:25:08.291Z,21.92
2022-09-12T12:27:45.062Z,21.85
2022-09-12T12:30:30.903Z,21.90
2022-09-12T12:33:10.868Z,21.80
2022-09-12T12:35:40.812Z,21.91
2022-09-12T12:38:28.461Z,21.97
2022-09-12T12:41:16.156Z,21.98
2022-09-12T12:43:44.149Z,22.13
2022-09-12T12:46:12.229Z,22.14
2022-09-12T12:49:00.467Z,22.38
2022-09-12T12:51:37.038Z,22.32
2022-09-12T12:54:09.805Z,22.08
2022-09-12T12:56:40.642Z,22.14
2022-09-12T12:59:18.227Z,21.98
2022-09-12T13:01:51.556Z,22.08
2022-09-12T13:04:22.358Z,22.25
2022-09-12T13:06:57.405Z,22.20
2022-09-12T13:09:24.992Z,22.16
2022-09-12T13:12:05.699Z,22.26
2022-09-12T13:14:48.706Z,22.47
2022-09-12T13:17:22.820Z,22.68
2022-09-12T13:20:00.756Z,22.65
2022-09-12T13:22:43.270Z,22.36
2022-09-12T13:25:31.406Z,22.22
2022-09-12T13:27:59.086Z,22.17
2022-09-12T13:30:26.382Z,22.03
2022-09-12T13:32:54.119Z,22.03
2022-09-12T13:35:21.424Z,21.92
2022-09-12T13:37:51.462Z,21.95
2022-09-12T13:40:32.507Z,22.24
2022-09-12T13:43:07.966Z,22.11
2022-09-12T13:45:36.943Z,22.07
2022-09-12T13:48:04.571Z,21.62
2022-09-12T13:51:01.486Z,21.80
2022-09-12T13:53:30.549Z,21.81
2022-09-12T13:56:00.948Z,21.93
2022-09-12T13:58:29.151Z,21.93
2022-09-12T14:01:05.581Z,21.67
2022-09-12T14:03:56.761Z,21.82
2022-09-12T14:06:27.848Z,21.82
2022-09-12T14:08:59.317Z,21.71
2022-09-12T14:11:31.039Z,21.59
2022-09-12T14:13:58.847Z,21.40
2022-09-12T14:16:29.266Z,21.35
2022-09-12T14:18:57.241Z,21.36
2022-09-12T14:21:34.297Z,21.28
2022-09-12T14:24:01.980Z,21.36
2022-09-12T14:26:32.711Z,21.26
2022-09-12T14:29:00.657Z,21.08
2022-09-12T14:31:31.884Z,21.11
2022-09-12T14:34:12.016Z,21.05
2022-09-12T14:36:57.779Z,20.96
2022-09-12T14:39:31.459Z,20.98
2022-09-12T14:42:03.644Z,20.89
2022-09-12T14:44:31.328Z,20.86
2022-09-12T14:47:00.536Z,20.96
2022-09-12T14:49:31.335Z,20.94
2022-09-12T14:52:00.419Z,21.17
2022-09-12T14:54:27.785Z,21.10
2022-09-12T14:56:55.951Z,21.10
2022-09-12T14:59:35.305Z,21.03
2022-09-12T15:02:18.194Z,21.03
2022-09-12T15:04:49.077Z,21.06
2022-09-12T15:07:22.861Z,20.97
2022-09-12T15:09:50.891Z,20.88
2022-09-12T15:12:18.183Z,20.83
2022-09-12T15:14:45.829Z,20.96
2022-09-12T15:17:13.296Z,20.88
2022-09-12T15:19:41.789Z,20.89
2022-09-12T15:22:15.147Z,20.97
2022-09-12T15:24:42.602Z,20.91
2022-09-12T15:27:12.816Z,20.72
2022-09-12T15:29:40.472Z,20.64
2022-09-12T15:32:09.855Z,20.79
2022-09-12T15:34:38.186Z,20.63
2022-09-12T15:37:09.886Z,20.64
2022-09-12T15:39:38.063Z,20.64
2022-09-12T15:42:05.439Z,20.62
2022-09-12T15:44:33.633Z,20.58
2022-09-12T15:47:01.115Z,20.44
2022-09-12T15:49:28.895Z,20.30
2022-09-12T15:51:56.283Z,20.30
2022-09-12T15:54:23.726Z,20.23
2022-09-12T15:56:51.483Z,20.37
2022-09-12T15:59:18.834Z,20.38
2022-09-12T16:01:46.415Z,20.24
2022-09-12T16:04:21.426Z,20.12
2022-09-12T16:06:49.221Z,20.14
2022-09-12T16:09:16.928Z,20.25
2022-09-12T16:11:45.563Z,20.27
2022-09-12T16:14:13.875Z,20.20
2022-09-12T16:16:41.866Z,20.12
2022-09-12T16:19:11.183Z,20.22
2022-09-12T16:21:39.194Z,20.20
2022-09-12T16:24:06.724Z,20.21
2022-09-12T16:26:34.765Z,20.16
2022-09-12T16:29:02.074Z,19.94
2022-09-12T16:31:29.816Z,19.86
2022-09-12T16:33:57.274Z,19.91
2022-09-12T16:36:24.882Z,19.92
2022-09-12T16:38:53.172Z,19.73
2022-09-12T16:41:21.773Z,19.63
2022-09-12T16:43:49.807Z,19.77
2022-09-12T16:46:19.334Z,19.84
2022-09-12T16:48:52.189Z,19.87
2022-09-12T16:51:21.076Z,19.78
2022-09-12T16:53:48.892Z,19.69
2022-09-12T16:56:16.826Z,19.59
2022-09-12T16:58:44.457Z,19.65
2022-09-12T17:01:16.031Z,19.50
2022-09-12T17:03:44.102Z,19.36
2022-09-12T17:06:15.631Z,19.32
2022-09-12T17:08:47.854Z,19.41
2022-09-12T17:11:16.786Z,19.45
2022-09-12T17:14:07.439Z,19.49
2022-09-12T17:16:36.204Z,19.43
2022-09-12T17:19:04.191Z,19.25
2022-09-12T17:21:32.119Z,19.45
2022-09-12T17:23:59.750Z,19.17
2022-09-12T17:26:27.836Z,19.34
2022-09-12T17:28:56.400Z,19.16
2022-09-12T17:31:24.225Z,19.17
2022-09-12T17:33:55.524Z,19.06
2022-09-12T17:36:23.615Z,19.08
2022-09-12T17:38:51.934Z,18.98
2022-09-12T17:41:19.990Z,18.98
2022-09-12T17:43:50.343Z,19.18
2022-09-12T17:46:18.553Z,19.21
2022-09-12T17:48:50.720Z,19.30
2022-09-12T17:51:18.307Z,19.10
2022-09-12T17:53:45.882Z,18.99
2022-09-12T17:56:13.273Z,18.92
2022-09-12T17:58:40.858Z,19.05
2022-09-12T18:01:29.373Z,18.99
2022-09-12T18:03:57.678Z,19.15
2022-09-12T18:06:25.131Z,19.15
2022-09-12T18:08:53.363Z,19.10
2022-09-12T18:11:21.011Z,18.93
2022-09-12T18:13:50.664Z,19.01
2022-09-12T18:16:18.449Z,18.93
2022-09-12T18:18:46.143Z,19.15
2022-09-12T18:21:13.692Z,19.01
2022-09-12T18:23:41.172Z,18.93
2022-09-12T18:26:09.021Z,18.62
2022-09-12T18:28:37.714Z,18.31
2022-09-12T18:31:05.537Z,18.16
2022-09-12T18:33:33.201Z,17.98
2022-09-12T18:36:07.414Z,17.88
2022-09-12T18:38:35.039Z,17.92
2022-09-12T18:41:06.106Z,17.81
2022-09-12T18:43:34.189Z,17.80
2022-09-12T18:46:03.897Z,17.68
2022-09-12T18:48:32.631Z,17.50
2022-09-12T18:51:05.755Z,17.51
2022-09-12T18:53:34.294Z,17.46
2022-09-12T18:56:06.399Z,17.37
2022-09-12T18:58:35.240Z,17.24
2022-09-12T19:01:10.101Z,17.27
2022-09-12T19:03:37.996Z,17.17
2022-09-12T19:06:09.292Z,16.88
2022-09-12T19:08:37.107Z,16.82
2022-09-12T19:11:05.267Z,16.81
2022-09-12T19:13:34.135Z,16.86
2022-09-12T19:16:01.656Z,16.79
2022-09-12T19:18:31.471Z,16.44
2022-09-12T19:20:58.763Z,16.41
2022-09-12T19:23:26.761Z,16.37
2022-09-12T19:25:58.318Z,16.21
2022-09-12T19:28:25.735Z,16.21
2022-09-12T19:30:53.671Z,16.10
2022-09-12T19:33:21.414Z,16.20
2022-09-12T19:35:49.092Z,16.32
2022-09-12T19:38:16.644Z,16.24
2022-09-12T19:40:44.612Z,16.32
2022-09-12T19:43:12.104Z,16.33
2022-09-12T19:45:39.591Z,16.32
2022-09-12T19:48:07.423Z,16.02
2022-09-12T19:50:34.818Z,15.85
2022-09-12T19:53:02.655Z,15.86
2022-09-12T19:55:30.354Z,15.92
2022-09-12T19:57:58.029Z,16.04
2022-09-12T20:00:25.491Z,15.82
2022-09-12T20:02:53.110Z,15.82
2022-09-12T20:05:20.734Z,15.82
2022-09-12T20:07:48.383Z,15.85
2022-09-12T20:10:16.014Z,15.83
2022-09-12T20:12:43.362Z,15.99
2022-09-12T20:15:14.315Z,16.08
2022-09-12T20:17:42.510Z,16.09
2022-09-12T20:20:10.538Z,16.08
2022-09-12T20:22:40.183Z,16.12
2022-09-12T20:25:08.150Z,16.00
2022-09-12T20:27:35.632Z,16.13
2022-09-12T20:30:03.144Z,16.18
2022-09-12T20:32:30.950Z,16.22
2022-09-12T20:34:58.244Z,15.96
2022-09-12T20:37:25.692Z,15.81
2022-09-12T20:39:54.655Z,15.84
2022-09-12T20:42:22.163Z,15.98
2022-09-12T20:44:49.713Z,16.04
2022-09-12T20:47:17.185Z,16.05
2022-09-12T20:49:44.443Z,16.11
2022-09-12T20:52:11.821Z,16.00
2022-09-12T20:54:39.783Z,16.03
2022-09-12T20:57:07.149Z,15.79
2022-09-12T20:59:35.361Z,15.69
2022-09-12T21:02:03.013Z,15.75
2022-09-12T21:04:30.778Z,15.89
2022-09-12T21:06:58.594Z,16.02
2022-09-12T21:09:25.926Z,16.08
2022-09-12T21:11:53.374Z,15.97
2022-09-12T21:14:20.756Z,16.05
2022-09-12T21:16:48.294Z,16.07
2022-09-12T21:19:17.042Z,16.13
2022-09-12T21:21:45.073Z,16.00
2022-09-12T21:24:13.292Z,16.08
2022-09-12T21:26:40.753Z,16.13
2022-09-12T21:29:08.474Z,16.07
2022-09-12T21:31:37.289Z,16.15
2022-09-12T21:34:04.859Z,16.02
2022-09-12T21:36:32.866Z,15.93
2022-09-12T21:39:00.440Z,15.96
2022-09-12T21:41:28.866Z,16.18
2022-09-12T21:43:56.286Z,15.97
2022-09-12T21:46:23.868Z,16.01
2022-09-12T21:48:51.431Z,16.13
2022-09-12T21:51:19.285Z,16.17
2022-09-12T21:53:46.702Z,16.27
2022-09-12T21:56:14.053Z,16.27
2022-09-12T21:58:41.377Z,16.12
2022-09-12T22:01:10.692Z,16.13
2022-09-12T22:03:38.978Z,16.15
2022-09-12T22:06:06.481Z,16.03
2022-09-12T22:08:35.529Z,16.20
2022-09-12T22:11:03.889Z,16.22
2022-09-12T22:13:32.703Z,16.22
2022-09-12T22:16:03.719Z,16.21
2022-09-12T22:18:35.364Z,16.19
2022-09-12T22:21:04.240Z,16.13
2022-09-12T22:23:50.486Z,16.13
2022-09-12T22:26:18.207Z,16.07
2022-09-12T22:28:47.311Z,16.07
2022-09-12T22:31:14.970Z,15.96
2022-09-12T22:33:42.412Z,15.92
2022-09-12T22:36:10.178Z,15.87
2022-09-12T22:38:37.743Z,15.99
2022-09-12T22:41:05.722Z,16.12
2022-09-12T22:43:33.628Z,16.10
2022-09-12T22:46:01.157Z,16.17
2022-09-12T22:48:28.596Z,16.15
2022-09-12T22:50:56.041Z,15.95
2022-09-12T22:53:23.377Z,15.91
2022-09-12T22:55:50.769Z,15.95
2022-09-12T22:58:18.335Z,16.06
2022-09-12T23:00:46.269Z,16.02
2022-09-12T23:03:13.744Z,16.10
2022-09-12T23:05:41.066Z,16.23
2022-09-12T23:08:08.471Z,16.11
2022-09-12T23:10:36.983Z,16.18
2022-09-12T23:13:05.213Z,16.22
2022-09-12T23:15:33.014Z,16.24
2022-09-12T23:18:00.594Z,16.31
2022-09-12T23:20:28.126Z,16.24
2022-09-12T23:22:55.648Z,16.22
2022-09-12T23:25:23.836Z,16.14
2022-09-12T23:27:51.266Z,16.15
2022-09-12T23:30:21.703Z,16.11
2022-09-12T23:32:49.310Z,16.15
2022-09-12T23:35:18.530Z,16.13
2022-09-12T23:37:46.514Z,16.20
2022-09-12T23:40:13.941Z,16.26
2022-09-12T23:42:41.640Z,16.17
2022-09-12T23:45:10.132Z,16.18
2022-09-12T23:47:38.112Z,16.17
2022-09-12T23:50:05.594Z,16.08
2022-09-12T23:52:32.903Z,16.07
2022-09-12T23:55:00.320Z,15.94
2022-09-12T23:57:27.899Z,15.98
2022-09-12T23:59:55.421Z,15.84
